Time;durP1;ratioP1;P1;durP2;ratioP2;P2;SDS_P1;SDS_P2;PMS_P1;PMS_P2;Temp;Humidity;BMP_temperature;BMP_pressure;BME280_temperature;BME280_humidity;BME280_pressure;Samples;Min_cycle;Max_cycle;Signal;HPM_P1;HPM_P2
2023/10/01 00:00:18;;;;;;;14.32;7.82;;;;;;;;;;6263901;28;20133;-66
2023/10/01 00:03:39;;;;;;;13.73;6.57;;;;;;;;;;6257372;28;20053;-64
2023/10/01 00:06:40;;;;;;;20.98;7.43;;;;;;;;;;6264027;28;20098;-66
2023/10/01 00:09:40;;;;;;;12.93;6.85;;;;;;;;;;6265462;28;20053;-64
2023/10/01 00:12:44;;;;;;;17.20;7.22;;;;;;;;;;6263994;28;20049;-65
2023/10/01 00:15:46;;;;;;;13.93;7.13;;;;;;;;;;6260448;28;20415;-66
2023/10/01 00:18:47;;;;;;;14.27;6.95;;;;;;;;;;6263759;28;20045;-66
2023/10/01 00:21:47;;;;;;;15.52;7.63;;;;;;;;;;6264684;28;20157;-65
2023/10/01 00:24:48;;;;;;;20.90;9.05;;;;;;;;;;6264541;28;20053;-66
2023/10/01 00:27:49;;;;;;;25.70;11.38;;;;;;;;;;6265291;28;20049;-66
2023/10/01 00:30:50;;;;;;;22.35;10.48;;;;;;;;;;6263055;28;20060;-60
2023/10/01 00:33:51;;;;;;;19.02;8.23;;;;;;;;;;6263653;28;20044;-67
2023/10/01 00:36:52;;;;;;;18.52;8.88;;;;;;;;;;6268985;28;20425;-66
2023/10/01 00:39:54;;;;;;;17.88;8.73;;;;;;;;;;6269695;28;20483;-64
2023/10/01 00:42:55;;;;;;;17.20;8.15;;;;;;;;;;6268345;28;20084;-67
2023/10/01 00:45:56;;;;;;;14.97;7.90;;;;;;;;;;6268610;28;20439;-67
2023/10/01 00:49:00;;;;;;;16.00;7.82;;;;;;;;;;6269490;28;20067;-67
2023/10/01 00:52:01;;;;;;;16.48;7.82;;;;;;;;;;6269228;28;20480;-67
2023/10/01 00:55:01;;;;;;;21.10;8.35;;;;;;;;;;6268206;28;20056;-64
2023/10/01 00:58:03;;;;;;;17.00;8.52;;;;;;;;;;6267434;28;20063;-62
2023/10/01 01:01:07;;;;;;;14.48;7.03;;;;;;;;;;6267733;28;20420;-62
2023/10/01 01:04:17;;;;;;;14.27;7.57;;;;;;;;;;6266802;28;20111;-66
2023/10/01 01:07:20;;;;;;;13.88;6.90;;;;;;;;;;6265673;28;20523;-64
2023/10/01 01:10:25;;;;;;;16.30;7.50;;;;;;;;;;6267104;28;20045;-66
2023/10/01 01:13:28;;;;;;;13.80;6.78;;;;;;;;;;6267432;28;20068;-65
2023/10/01 01:16:29;;;;;;;15.75;7.35;;;;;;;;;;6265737;28;20056;-61
2023/10/01 01:19:33;;;;;;;13.35;7.20;;;;;;;;;;6267890;28;20056;-67
2023/10/01 01:22:34;;;;;;;14.63;6.65;;;;;;;;;;6268419;28;20526;-65
2023/10/01 01:25:35;;;;;;;18.02;8.20;;;;;;;;;;6267804;28;20135;-67
2023/10/01 01:28:36;;;;;;;17.05;8.32;;;;;;;;;;6265944;28;20478;-66
2023/10/01 01:31:45;;;;;;;16.13;8.00;;;;;;;;;;6267090;28;20068;-67
2023/10/01 01:34:46;;;;;;;16.25;8.13;;;;;;;;;;6256255;28;20051;-66
2023/10/01 01:37:46;;;;;;;15.10;7.97;;;;;;;;;;6266812;28;20443;-67
2023/10/01 01:40:50;;;;;;;15.85;8.10;;;;;;;;;;6267857;28;20045;-65
2023/10/01 01:43:51;;;;;;;19.23;9.20;;;;;;;;;;6266801;28;20061;-66
2023/10/01 01:47:00;;;;;;;18.30;8.90;;;;;;;;;;6266510;28;20072;-66
2023/10/01 01:50:10;;;;;;;17.45;8.95;;;;;;;;;;6267518;28;20041;-62
2023/10/01 01:53:12;;;;;;;14.77;7.75;;;;;;;;;;6255285;28;20051;-65
2023/10/01 01:56:16;;;;;;;16.90;7.45;;;;;;;;;;6267853;28;20050;-66
2023/10/01 01:59:21;;;;;;;18.67;8.60;;;;;;;;;;6265513;28;20045;-64
2023/10/01 02:02:23;;;;;;;22.25;10.32;;;;;;;;;;6267278;28;20084;-66
2023/10/01 02:05:28;;;;;;;;;;;;;;;;;;6266848;28;20041;-65
2023/10/01 02:11:48;;;;;;;18.10;9.07;;;;;;;;;;6266550;28;20174;-65
2023/10/01 02:14:54;;;;;;;19.60;8.73;;;;;;;;;;6266821;28;20072;-66
2023/10/01 02:17:56;;;;;;;15.98;7.90;;;;;;;;;;6265995;28;20053;-64
2023/10/01 02:20:56;;;;;;;17.02;8.25;;;;;;;;;;6264817;28;20045;-66
2023/10/01 02:23:57;;;;;;;18.45;9.07;;;;;;;;;;6266570;28;20094;-66
2023/10/01 02:27:00;;;;;;;15.32;8.85;;;;;;;;;;6266177;28;20037;-62
2023/10/01 02:30:21;;;;;;;18.27;8.85;;;;;;;;;;6266728;28;20098;-65
2023/10/01 02:33:22;;;;;;;19.50;9.80;;;;;;;;;;6266777;28;20053;-66
2023/10/01 02:36:23;;;;;;;20.38;9.15;;;;;;;;;;6265979;28;20049;-67
2023/10/01 02:39:27;;;;;;;20.33;9.45;;;;;;;;;;6264307;28;20048;-64
2023/10/01 02:42:30;;;;;;;20.73;9.75;;;;;;;;;;6264170;28;20051;-65
2023/10/01 02:45:32;;;;;;;19.40;9.95;;;;;;;;;;6265017;28;20037;-66
2023/10/01 02:48:34;;;;;;;20.10;10.15;;;;;;;;;;6266231;28;20086;-64
2023/10/01 02:51:37;;;;;;;21.63;10.20;;;;;;;;;;6266562;28;20155;-66
2023/10/01 02:54:37;;;;;;;21.45;10.35;;;;;;;;;;6265422;28;20445;-63
2023/10/01 02:57:40;;;;;;;19.45;9.32;;;;;;;;;;6265706;28;20049;-62
2023/10/01 03:00:42;;;;;;;22.77;10.07;;;;;;;;;;6263111;28;20065;-66
2023/10/01 03:03:43;;;;;;;22.48;10.52;;;;;;;;;;6263442;28;20051;-64
2023/10/01 03:06:50;;;;;;;21.95;10.40;;;;;;;;;;6266355;28;20060;-65
2023/10/01 03:09:53;;;;;;;25.42;11.82;;;;;;;;;;6253683;28;20072;-66
2023/10/01 03:12:59;;;;;;;20.65;10.73;;;;;;;;;;6263867;28;20049;-66
2023/10/01 03:19:26;;;;;;;25.05;12.15;;;;;;;;;;6257395;28;20082;-66
2023/10/01 03:22:31;;;;;;;25.48;11.18;;;;;;;;;;6262649;28;20060;-65
2023/10/01 03:25:40;;;;;;;23.23;11.20;;;;;;;;;;6264356;28;20480;-65
2023/10/01 03:32:29;;;;;;;23.35;11.05;;;;;;;;;;6234911;28;20426;-64
2023/10/01 03:35:30;;;;;;;24.33;11.50;;;;;;;;;;6238325;28;20045;-66
2023/10/01 03:38:32;;;;;;;20.67;11.33;;;;;;;;;;6264559;28;20045;-64
2023/10/01 03:41:52;;;;;;;27.40;12.30;;;;;;;;;;6264968;28;20421;-65
2023/10/01 03:45:00;;;;;;;26.38;11.45;;;;;;;;;;6264905;28;20578;-64
2023/10/01 03:48:00;;;;;;;31.23;12.80;;;;;;;;;;6266389;28;20637;-66
2023/10/01 03:51:01;;;;;;;26.05;12.05;;;;;;;;;;6262929;28;20076;-64
2023/10/01 03:54:06;;;;;;;24.55;11.52;;;;;;;;;;6264229;28;20122;-60
2023/10/01 03:57:11;;;;;;;25.65;12.63;;;;;;;;;;6262842;28;20049;-61
2023/10/01 04:00:29;;;;;;;26.08;12.55;;;;;;;;;;6263245;28;20045;-66
2023/10/01 04:03:38;;;;;;;26.95;12.88;;;;;;;;;;6263755;28;20037;-66
2023/10/01 04:06:39;;;;;;;28.27;12.43;;;;;;;;;;6263386;28;20094;-64
2023/10/01 04:09:50;;;;;;;26.38;12.52;;;;;;;;;;6262831;28;20040;-66
2023/10/01 04:12:54;;;;;;;27.93;13.93;;;;;;;;;;6259683;28;20064;-65
2023/10/01 04:16:07;;;;;;;31.25;12.70;;;;;;;;;;6264550;28;20056;-65
2023/10/01 04:19:11;;;;;;;31.52;12.98;;;;;;;;;;6264181;28;20067;-65
2023/10/01 04:22:12;;;;;;;27.80;13.60;;;;;;;;;;6263596;28;20045;-66
2023/10/01 04:25:14;;;;;;;25.13;12.57;;;;;;;;;;6262623;28;20547;-65
2023/10/01 04:28:15;;;;;;;28.63;13.35;;;;;;;;;;6263954;28;20049;-66
2023/10/01 04:31:19;;;;;;;29.90;12.80;;;;;;;;;;6264022;28;20056;-67
2023/10/01 04:34:20;;;;;;;36.28;16.13;;;;;;;;;;6263588;28;20139;-63
2023/10/01 04:37:36;;;;;;;27.58;13.20;;;;;;;;;;6264231;28;20509;-67
2023/10/01 04:40:40;;;;;;;32.90;14.48;;;;;;;;;;6264268;28;20041;-67
2023/10/01 04:43:51;;;;;;;28.55;14.13;;;;;;;;;;6261618;28;20486;-63
2023/10/01 04:46:55;;;;;;;26.92;12.88;;;;;;;;;;6264224;28;20415;-66
2023/10/01 04:49:56;;;;;;;32.90;13.65;;;;;;;;;;6262283;28;20071;-67
2023/10/01 04:52:59;;;;;;;42.92;16.13;;;;;;;;;;6263070;28;20045;-66
2023/10/01 04:56:06;;;;;;;32.13;14.63;;;;;;;;;;6263606;28;20396;-65
2023/10/01 04:59:07;;;;;;;26.50;13.60;;;;;;;;;;6264399;28;20045;-66
2023/10/01 05:02:21;;;;;;;33.95;15.98;;;;;;;;;;6263015;28;20053;-66
2023/10/01 05:05:25;;;;;;;32.58;15.40;;;;;;;;;;6262900;28;20464;-66
2023/10/01 05:08:35;;;;;;;29.05;15.07;;;;;;;;;;6263749;28;20056;-65
2023/10/01 05:11:39;;;;;;;35.35;17.30;;;;;;;;;;6264301;28;20056;-66
2023/10/01 05:14:59;;;;;;;32.93;17.03;;;;;;;;;;6262689;28;20530;-65
2023/10/01 05:18:01;;;;;;;31.50;15.73;;;;;;;;;;6263022;28;20241;-65
2023/10/01 05:21:09;;;;;;;35.77;15.87;;;;;;;;;;6264416;28;20055;-63
2023/10/01 05:24:10;;;;;;;35.22;16.98;;;;;;;;;;6266869;28;20163;-62
2023/10/01 05:27:18;;;;;;;35.25;16.02;;;;;;;;;;6266704;28;20044;-66
2023/10/01 05:30:39;;;;;;;36.20;18.13;;;;;;;;;;6265940;28;20086;-62
2023/10/01 05:33:39;;;;;;;38.70;18.80;;;;;;;;;;6265869;28;20524;-66
2023/10/01 05:36:40;;;;;;;37.45;17.73;;;;;;;;;;6263566;28;20053;-65
2023/10/01 05:39:59;;;;;;;34.75;17.02;;;;;;;;;;6266662;28;20053;-66
2023/10/01 05:43:13;;;;;;;29.95;14.27;;;;;;;;;;6265178;28;20055;-66
2023/10/01 05:46:14;;;;;;;32.10;15.80;;;;;;;;;;6262268;28;20071;-66
2023/10/01 05:49:17;;;;;;;36.70;19.05;;;;;;;;;;6266932;28;20059;-65
2023/10/01 05:52:17;;;;;;;35.53;17.52;;;;;;;;;;6266449;28;20037;-65
2023/10/01 05:55:19;;;;;;;31.98;15.77;;;;;;;;;;6266175;28;20061;-66
2023/10/01 05:58:21;;;;;;;37.40;18.25;;;;;;;;;;6267142;28;20574;-62
2023/10/01 06:01:21;;;;;;;34.03;15.95;;;;;;;;;;6266742;28;20049;-66
2023/10/01 06:04:22;;;;;;;31.80;15.60;;;;;;;;;;6267825;28;20498;-66
2023/10/01 06:07:24;;;;;;;33.70;15.52;;;;;;;;;;6258209;28;20488;-65
2023/10/01 06:10:28;;;;;;;35.72;14.55;;;;;;;;;;6266450;28;20032;-65
2023/10/01 06:13:29;;;;;;;34.42;17.98;;;;;;;;;;6265204;28;20495;-67
2023/10/01 06:16:29;;;;;;;33.17;17.13;;;;;;;;;;6266083;28;20537;-65
2023/10/01 06:19:34;;;;;;;33.30;16.42;;;;;;;;;;6264394;28;20167;-67
2023/10/01 06:22:35;;;;;;;29.85;13.95;;;;;;;;;;6263664;28;20160;-66
2023/10/01 06:25:40;;;;;;;30.13;15.23;;;;;;;;;;6266659;28;20045;-64
2023/10/01 06:28:41;;;;;;;32.03;16.40;;;;;;;;;;6267192;28;20123;-65
2023/10/01 06:32:00;;;;;;;35.97;16.20;;;;;;;;;;6266049;28;20145;-66
2023/10/01 06:35:02;;;;;;;29.65;13.90;;;;;;;;;;6266248;28;20045;-65
2023/10/01 06:38:04;;;;;;;30.95;14.32;;;;;;;;;;6266418;28;20526;-64
2023/10/01 06:41:06;;;;;;;;;;;;;;;;;;6266743;28;20048;-66
2023/10/01 06:44:10;;;;;;;32.50;13.30;;;;;;;;;;6264126;28;19924;-67
2023/10/01 06:47:16;;;;;;;28.17;12.27;;;;;;;;;;6263033;28;20479;-66
2023/10/01 06:50:20;;;;;;;27.42;13.40;;;;;;;;;;6262491;28;20468;-66
2023/10/01 06:53:43;;;;;;;28.88;13.57;;;;;;;;;;6262938;28;20102;-67
2023/10/01 06:56:44;;;;;;;30.27;13.63;;;;;;;;;;6262307;28;20055;-66
2023/10/01 06:59:45;;;;;;;28.80;12.82;;;;;;;;;;6264118;28;20053;-66
2023/10/01 07:02:46;;;;;;;36.33;13.73;;;;;;;;;;6266279;28;20045;-67
2023/10/01 07:05:51;;;;;;;27.17;13.07;;;;;;;;;;6265465;28;20408;-67
2023/10/01 07:08:53;;;;;;;29.40;12.15;;;;;;;;;;6265639;28;20040;-67
2023/10/01 07:11:58;;;;;;;32.65;13.88;;;;;;;;;;6265448;28;20091;-67
2023/10/01 07:14:59;;;;;;;26.23;12.35;;;;;;;;;;6264958;28;20377;-67
2023/10/01 07:18:13;;;;;;;29.20;12.45;;;;;;;;;;6265253;28;20161;-65
2023/10/01 07:21:16;;;;;;;26.77;13.15;;;;;;;;;;6265065;28;20045;-63
2023/10/01 07:24:20;;;;;;;26.80;12.35;;;;;;;;;;6264166;28;20322;-67
2023/10/01 07:27:21;;;;;;;27.42;12.77;;;;;;;;;;6264194;28;20051;-67
2023/10/01 07:30:39;;;;;;;29.73;13.02;;;;;;;;;;6263800;28;20048;-66
2023/10/01 07:33:39;;;;;;;31.58;12.50;;;;;;;;;;6265274;28;20049;-67
2023/10/01 07:36:42;;;;;;;31.40;13.30;;;;;;;;;;6264601;28;20543;-65
2023/10/01 07:39:43;;;;;;;27.73;12.52;;;;;;;;;;6264454;28;20090;-66
2023/10/01 07:42:54;;;;;;;26.20;12.20;;;;;;;;;;6265281;28;20484;-61
2023/10/01 07:45:58;;;;;;;27.50;11.98;;;;;;;;;;6264143;28;20099;-60
2023/10/01 07:49:00;;;;;;;32.83;13.95;;;;;;;;;;6247987;28;20056;-63
2023/10/01 07:52:05;;;;;;;32.13;12.52;;;;;;;;;;6262734;28;20110;-60
2023/10/01 07:55:29;;;;;;;26.38;11.80;;;;;;;;;;6264734;28;20071;-61
2023/10/01 07:58:44;;;;;;;33.58;12.23;;;;;;;;;;6264548;28;20044;-62
2023/10/01 08:01:46;;;;;;;30.70;12.90;;;;;;;;;;6263679;28;20102;-65
2023/10/01 08:04:58;;;;;;;25.93;12.53;;;;;;;;;;6264227;28;20148;-66
2023/10/01 08:08:02;;;;;;;32.67;13.98;;;;;;;;;;6264239;28;20395;-62
2023/10/01 08:11:37;;;;;;;30.48;14.15;;;;;;;;;;6264226;28;20052;-67
2023/10/01 08:14:26;;;;;;;30.15;13.82;;;;;;;;;;6262952;28;20124;-64
2023/10/01 08:17:32;;;;;;;33.30;13.15;;;;;;;;;;6264526;28;20090;-64
2023/10/01 08:20:33;;;;;;;32.60;13.77;;;;;;;;;;6265232;28;20060;-66
2023/10/01 08:23:36;;;;;;;30.20;13.20;;;;;;;;;;6264274;28;20056;-65
2023/10/01 08:26:57;;;;;;;33.13;13.65;;;;;;;;;;6265541;28;20056;-65
2023/10/01 08:33:25;;;;;;;33.15;12.52;;;;;;;;;;6264235;28;20067;-68
2023/10/01 08:36:25;;;;;;;30.45;12.05;;;;;;;;;;6264229;28;20051;-68
2023/10/01 08:42:47;;;;;;;26.33;11.45;;;;;;;;;;6265607;28;20049;-67
2023/10/01 08:45:52;;;;;;;28.92;11.65;;;;;;;;;;6263826;28;20533;-65
2023/10/01 08:49:00;;;;;;;26.50;12.07;;;;;;;;;;6260405;28;20474;-62
2023/10/01 08:52:19;;;;;;;29.83;11.75;;;;;;;;;;6260855;28;20377;-63
2023/10/01 08:55:35;;;;;;;28.23;11.93;;;;;;;;;;6253597;28;20041;-66
2023/10/01 08:58:52;;;;;;;29.52;11.13;;;;;;;;;;6265843;28;20610;-67
2023/10/01 09:01:55;;;;;;;25.42;10.75;;;;;;;;;;6264399;28;20055;-63
2023/10/01 09:04:57;;;;;;;26.77;9.18;;;;;;;;;;6269360;28;20033;-67
2023/10/01 09:08:16;;;;;;;23.55;9.50;;;;;;;;;;6268652;28;20518;-67
2023/10/01 09:11:17;;;;;;;28.48;10.25;;;;;;;;;;6257679;28;20041;-68
2023/10/01 09:14:34;;;;;;;24.27;9.55;;;;;;;;;;6268007;28;20128;-67
2023/10/01 09:17:56;;;;;;;34.30;10.23;;;;;;;;;;6263793;28;20503;-66
2023/10/01 09:21:09;;;;;;;23.58;9.60;;;;;;;;;;6265859;28;20041;-67
2023/10/01 09:24:39;;;;;;;26.40;9.38;;;;;;;;;;6271349;28;20122;-67
2023/10/01 09:28:04;;;;;;;22.48;9.25;;;;;;;;;;6264148;28;20045;-61
2023/10/01 09:34:31;;;;;;;26.45;9.32;;;;;;;;;;6269416;28;20051;-61
2023/10/01 09:37:35;;;;;;;27.48;9.95;;;;;;;;;;6269564;28;20049;-66
2023/10/01 09:40:38;;;;;;;21.10;9.57;;;;;;;;;;6268547;28;20465;-65
2023/10/01 09:43:39;;;;;;;23.92;8.98;;;;;;;;;;6264878;28;20440;-66
2023/10/01 09:46:40;;;;;;;27.25;9.50;;;;;;;;;;6262606;28;20045;-67
2023/10/01 09:49:47;;;;;;;21.77;9.57;;;;;;;;;;6265772;28;20479;-60
2023/10/01 09:52:48;;;;;;;19.45;8.93;;;;;;;;;;6269955;28;20286;-65
2023/10/01 09:55:55;;;;;;;23.20;9.50;;;;;;;;;;6266054;28;20114;-61
2023/10/01 09:59:07;;;;;;;22.20;8.60;;;;;;;;;;6258412;28;20057;-63
2023/10/01 10:02:09;;;;;;;23.00;8.35;;;;;;;;;;6255724;28;20563;-62
2023/10/01 10:05:24;;;;;;;22.45;8.52;;;;;;;;;;6260817;28;20471;-67
2023/10/01 10:08:26;;;;;;;19.02;8.43;;;;;;;;;;6258039;28;20454;-63
2023/10/01 10:11:28;;;;;;;15.82;7.30;;;;;;;;;;6256191;28;20510;-59
2023/10/01 10:14:28;;;;;;;21.33;6.75;;;;;;;;;;6257888;28;20126;-66
2023/10/01 10:18:15;;;;;;;16.17;5.65;;;;;;;;;;6258996;28;20140;-63
2023/10/01 10:21:16;;;;;;;17.92;6.78;;;;;;;;;;6255589;28;20114;-68
2023/10/01 10:24:28;;;;;;;23.90;6.85;;;;;;;;;;6257425;28;20052;-67
2023/10/01 10:27:33;;;;;;;19.02;5.80;;;;;;;;;;6257764;28;20056;-63
2023/10/01 10:30:33;;;;;;;18.95;6.28;;;;;;;;;;6255755;28;20066;-68
2023/10/01 10:33:40;;;;;;;14.73;5.80;;;;;;;;;;6256979;28;20049;-69
2023/10/01 10:36:50;;;;;;;15.85;5.20;;;;;;;;;;6256790;28;20059;-63
2023/10/01 10:40:02;;;;;;;16.65;5.68;;;;;;;;;;6255496;28;20053;-65
2023/10/01 10:43:05;;;;;;;15.48;5.32;;;;;;;;;;6258026;28;20049;-63
2023/10/01 10:46:08;;;;;;;17.13;5.00;;;;;;;;;;6257149;28;20494;-65
2023/10/01 10:49:09;;;;;;;12.85;4.38;;;;;;;;;;6254433;28;20515;-62
2023/10/01 10:52:33;;;;;;;17.95;5.28;;;;;;;;;;6256121;28;20048;-61
2023/10/01 10:55:36;;;;;;;19.65;5.80;;;;;;;;;;6256799;28;20476;-65
2023/10/01 10:58:43;;;;;;;20.17;4.70;;;;;;;;;;6256929;28;20451;-60
2023/10/01 11:01:43;;;;;;;14.90;4.38;;;;;;;;;;6255395;28;20056;-61
2023/10/01 11:04:44;;;;;;;13.02;4.30;;;;;;;;;;6258130;28;20052;-64
2023/10/01 11:07:58;;;;;;;11.93;4.65;;;;;;;;;;6257705;28;20060;-65
2023/10/01 11:11:10;;;;;;;12.25;4.40;;;;;;;;;;6255571;28;20059;-61
2023/10/01 11:14:17;;;;;;;;;;;;;;;;;;6257378;28;20516;-61
2023/10/01 11:17:17;;;;;;;14.00;3.80;;;;;;;;;;6258667;28;19932;-61
2023/10/01 11:20:24;;;;;;;9.90;3.95;;;;;;;;;;6254560;28;20667;-64
2023/10/01 11:23:26;;;;;;;14.00;3.55;;;;;;;;;;6257379;28;20045;-61
2023/10/01 11:26:27;;;;;;;16.88;4.07;;;;;;;;;;6256981;28;20098;-65
2023/10/01 11:29:30;;;;;;;11.98;4.35;;;;;;;;;;6254095;28;20060;-60
2023/10/01 11:36:07;;;;;;;11.98;4.07;;;;;;;;;;6256844;28;20055;-63
2023/10/01 11:39:16;;;;;;;13.43;4.07;;;;;;;;;;6258153;28;20051;-61
2023/10/01 11:42:27;;;;;;;11.77;4.60;;;;;;;;;;6254687;28;20478;-61
2023/10/01 11:45:30;;;;;;;14.67;4.43;;;;;;;;;;6256219;28;20041;-62
2023/10/01 11:48:56;;;;;;;14.45;3.80;;;;;;;;;;6256169;28;20052;-66
2023/10/01 11:51:55;;;;;;;11.70;4.18;;;;;;;;;;6254815;28;20037;-62
2023/10/01 11:54:55;;;;;;;16.23;4.38;;;;;;;;;;6255077;28;20067;-62
2023/10/01 11:57:56;;;;;;;18.45;5.55;;;;;;;;;;6255842;28;20490;-61
2023/10/01 12:00:59;;;;;;;15.20;4.22;;;;;;;;;;6254089;28;20064;-61
2023/10/01 12:04:00;;;;;;;16.27;4.38;;;;;;;;;;6255128;28;20045;-65
2023/10/01 12:07:01;;;;;;;16.40;4.07;;;;;;;;;;6255949;28;20083;-65
2023/10/01 12:10:05;;;;;;;12.33;5.10;;;;;;;;;;6252923;28;20739;-61
2023/10/01 12:13:10;;;;;;;13.80;4.47;;;;;;;;;;6257148;28;20163;-67
2023/10/01 12:16:11;;;;;;;14.90;4.38;;;;;;;;;;6256059;28;20041;-61
2023/10/01 12:19:24;;;;;;;11.70;4.68;;;;;;;;;;6253219;28;20417;-61
2023/10/01 12:22:26;;;;;;;11.60;4.00;;;;;;;;;;6255978;28;20143;-60
2023/10/01 12:25:42;;;;;;;15.38;4.03;;;;;;;;;;6254904;28;20049;-60
2023/10/01 12:29:11;;;;;;;14.15;4.18;;;;;;;;;;6256001;28;20055;-62
2023/10/01 12:32:03;;;;;;;15.52;4.03;;;;;;;;;;6260041;28;20041;-62
2023/10/01 12:35:18;;;;;;;14.82;4.20;;;;;;;;;;6261887;28;20055;-65
2023/10/01 12:41:19;;;;;;;10.60;3.95;;;;;;;;;;6258086;28;20059;-64
2023/10/01 12:44:34;;;;;;;11.87;3.60;;;;;;;;;;6260457;28;20565;-62
2023/10/01 12:47:50;;;;;;;16.67;4.63;;;;;;;;;;6261685;28;20427;-66
2023/10/01 12:51:08;;;;;;;11.73;3.70;;;;;;;;;;6257438;28;20053;-65
2023/10/01 12:54:09;;;;;;;9.48;3.50;;;;;;;;;;6260378;28;20055;-58
2023/10/01 12:57:10;;;;;;;10.45;4.18;;;;;;;;;;6259943;28;20045;-65
2023/10/01 13:00:43;;;;;;;17.92;4.50;;;;;;;;;;6254625;28;20122;-61
2023/10/01 13:03:43;;;;;;;14.13;3.90;;;;;;;;;;6259006;28;20049;-60
2023/10/01 13:06:46;;;;;;;13.82;3.55;;;;;;;;;;6260299;28;20389;-61
2023/10/01 13:12:56;;;;;;;14.95;4.35;;;;;;;;;;6259699;28;20072;-63
2023/10/01 13:15:58;;;;;;;17.35;4.00;;;;;;;;;;6259931;28;20504;-64
2023/10/01 13:19:01;;;;;;;;;;;;;;;;;;6260962;28;20076;-66
2023/10/01 13:22:04;;;;;;;15.52;4.60;;;;;;;;;;6256206;28;19928;-65
2023/10/01 13:25:06;;;;;;;16.98;5.28;;;;;;;;;;6258138;28;20485;-63
2023/10/01 13:28:07;;;;;;;11.88;3.75;;;;;;;;;;6260745;28;20049;-65
2023/10/01 13:31:07;;;;;;;12.93;4.03;;;;;;;;;;6254349;28;20063;-65
2023/10/01 13:34:21;;;;;;;12.75;3.47;;;;;;;;;;6256567;28;20041;-66
2023/10/01 13:40:42;;;;;;;10.82;3.28;;;;;;;;;;6253453;28;20571;-66
2023/10/01 14:10:39;;;;;;;12.18;3.40;;;;;;;;;;6250665;28;20048;-61
2023/10/01 14:13:41;;;;;;;9.60;3.60;;;;;;;;;;6253026;28;20048;-62
2023/10/01 14:16:53;;;;;;;11.10;3.88;;;;;;;;;;6256273;28;20056;-62
2023/10/01 14:19:55;;;;;;;12.45;4.03;;;;;;;;;;6251756;28;20052;-61
2023/10/01 14:23:00;;;;;;;12.13;3.75;;;;;;;;;;6255466;28;20104;-62
2023/10/01 14:26:10;;;;;;;10.65;3.53;;;;;;;;;;6255419;28;20053;-62
2023/10/01 14:29:11;;;;;;;13.73;3.85;;;;;;;;;;6256307;28;20114;-61
2023/10/01 14:32:11;;;;;;;16.50;3.85;;;;;;;;;;6253695;28;20049;-61
2023/10/01 14:35:15;;;;;;;10.82;3.90;;;;;;;;;;6254464;28;20049;-62
2023/10/01 14:38:16;;;;;;;12.10;3.70;;;;;;;;;;6253170;28;20049;-62
2023/10/01 14:41:17;;;;;;;14.48;3.70;;;;;;;;;;6253502;28;20037;-62
2023/10/01 14:44:24;;;;;;;9.80;4.03;;;;;;;;;;6254362;28;20041;-62
2023/10/01 14:47:26;;;;;;;10.95;3.90;;;;;;;;;;6254449;28;20136;-62
2023/10/01 14:50:26;;;;;;;13.80;3.67;;;;;;;;;;6252506;28;20254;-64
2023/10/01 14:53:29;;;;;;;12.30;3.35;;;;;;;;;;6254948;28;20578;-61
2023/10/01 14:56:36;;;;;;;14.18;3.97;;;;;;;;;;6252701;28;20045;-61
2023/10/01 14:59:37;;;;;;;12.98;3.50;;;;;;;;;;6251235;28;20512;-63
2023/10/01 15:02:37;;;;;;;15.77;4.07;;;;;;;;;;6254846;28;20068;-66
2023/10/01 15:05:39;;;;;;;9.77;3.57;;;;;;;;;;6254634;28;20057;-65
2023/10/01 15:08:39;;;;;;;10.60;3.53;;;;;;;;;;6255108;28;20598;-65
2023/10/01 15:11:48;;;;;;;13.80;3.88;;;;;;;;;;6251531;28;20049;-64
2023/10/01 15:14:53;;;;;;;11.23;3.90;;;;;;;;;;6254172;28;20596;-66
2023/10/01 15:17:56;;;;;;;10.73;3.72;;;;;;;;;;6255179;28;20053;-65
2023/10/01 15:20:56;;;;;;;12.63;4.25;;;;;;;;;;6251373;28;20040;-66
2023/10/01 15:24:00;;;;;;;11.30;3.53;;;;;;;;;;6254978;28;20543;-61
2023/10/01 15:27:04;;;;;;;6.97;3.33;;;;;;;;;;6252946;28;20530;-62
2023/10/01 15:30:20;;;;;;;11.35;4.05;;;;;;;;;;6251618;28;20041;-61
2023/10/01 15:33:21;;;;;;;12.98;3.67;;;;;;;;;;6254031;28;20048;-61
2023/10/01 15:36:21;;;;;;;13.93;3.80;;;;;;;;;;6254053;28;20423;-62
2023/10/01 15:42:34;;;;;;;15.93;4.25;;;;;;;;;;6252509;28;21055;-66
2023/10/01 15:45:43;;;;;;;10.70;3.50;;;;;;;;;;6253444;28;20060;-62
2023/10/01 15:48:50;;;;;;;11.93;3.70;;;;;;;;;;6251911;28;20049;-65
2023/10/01 15:51:50;;;;;;;11.07;3.63;;;;;;;;;;6248663;28;20807;-66
2023/10/01 15:54:57;;;;;;;12.30;3.95;;;;;;;;;;6254403;28;20096;-60
2023/10/01 15:58:02;;;;;;;14.93;4.35;;;;;;;;;;6255523;28;20048;-64
2023/10/01 16:01:03;;;;;;;11.50;3.50;;;;;;;;;;6252007;28;20597;-67
2023/10/01 16:04:08;;;;;;;12.27;3.60;;;;;;;;;;6255001;28;20499;-65
2023/10/01 16:07:08;;;;;;;11.07;4.18;;;;;;;;;;6252942;28;20045;-59
2023/10/01 16:10:11;;;;;;;9.70;4.47;;;;;;;;;;6250502;28;20499;-61
2023/10/01 16:13:14;;;;;;;14.50;4.47;;;;;;;;;;6253487;28;20523;-65
2023/10/01 16:16:15;;;;;;;12.48;3.90;;;;;;;;;;6253982;28;20538;-61
2023/10/01 16:19:22;;;;;;;10.67;4.80;;;;;;;;;;6254918;28;20546;-63
2023/10/01 16:22:27;;;;;;;11.57;4.35;;;;;;;;;;6252647;28;20053;-60
2023/10/01 16:25:30;;;;;;;11.63;4.20;;;;;;;;;;6255586;28;20143;-71
2023/10/01 16:28:33;;;;;;;13.43;4.25;;;;;;;;;;6255797;28;20082;-61
2023/10/01 16:31:34;;;;;;;16.45;4.32;;;;;;;;;;6253114;28;20078;-61
2023/10/01 16:34:39;;;;;;;13.45;4.28;;;;;;;;;;6255532;28;20049;-62
2023/10/01 16:37:40;;;;;;;9.90;4.18;;;;;;;;;;6256501;28;20039;-51
2023/10/01 16:40:40;;;;;;;11.30;4.18;;;;;;;;;;6253492;28;20419;-68
2023/10/01 16:43:52;;;;;;;12.38;4.18;;;;;;;;;;6254925;28;20057;-64
2023/10/01 16:46:57;;;;;;;12.18;4.13;;;;;;;;;;6249795;28;20466;-62
2023/10/01 16:49:58;;;;;;;13.05;4.10;;;;;;;;;;6245168;28;20414;-61
2023/10/01 16:53:00;;;;;;;14.73;4.32;;;;;;;;;;6252052;28;20037;-66
2023/10/01 16:56:12;;;;;;;;;;;;;;;;;;6254625;28;20049;-62
2023/10/01 16:59:14;;;;;;;10.25;3.90;;;;;;;;;;6253913;28;19931;-66
2023/10/01 17:02:19;;;;;;;10.70;3.95;;;;;;;;;;6247505;28;20049;-61
2023/10/01 17:05:19;;;;;;;13.88;4.72;;;;;;;;;;6252581;28;20415;-64
2023/10/01 17:08:23;;;;;;;13.68;4.47;;;;;;;;;;6255251;28;20101;-62
2023/10/01 17:11:27;;;;;;;9.07;4.85;;;;;;;;;;6251655;28;20057;-69
2023/10/01 17:14:28;;;;;;;13.30;4.55;;;;;;;;;;6253510;28;20053;-60
2023/10/01 17:17:31;;;;;;;15.23;5.00;;;;;;;;;;6254635;28;20052;-60
2023/10/01 17:20:32;;;;;;;17.23;4.70;;;;;;;;;;6256536;28;20098;-66
2023/10/01 17:23:32;;;;;;;11.55;5.13;;;;;;;;;;6252736;28;20045;-62
2023/10/01 17:27:01;;;;;;;13.10;5.65;;;;;;;;;;6255718;28;20083;-64
2023/10/01 17:30:17;;;;;;;12.18;5.40;;;;;;;;;;6253291;28;20145;-61
2023/10/01 17:33:18;;;;;;;11.50;5.57;;;;;;;;;;6255239;28;20059;-65
2023/10/01 17:36:19;;;;;;;17.67;6.20;;;;;;;;;;6255504;28;20053;-60
2023/10/01 17:39:22;;;;;;;11.45;5.05;;;;;;;;;;6255109;28;20436;-60
2023/10/01 17:42:23;;;;;;;11.52;4.97;;;;;;;;;;6254636;28;20134;-62
2023/10/01 17:45:26;;;;;;;14.75;5.80;;;;;;;;;;6256645;28;20442;-62
2023/10/01 17:48:28;;;;;;;12.57;6.00;;;;;;;;;;6252959;28;20507;-62
2023/10/01 17:51:30;;;;;;;13.68;5.45;;;;;;;;;;6252453;28;20091;-62
2023/10/01 17:54:33;;;;;;;15.02;5.13;;;;;;;;;;6252643;28;20045;-63
2023/10/01 17:57:38;;;;;;;11.82;5.70;;;;;;;;;;6251642;28;20055;-62
2023/10/01 18:00:41;;;;;;;19.40;6.47;;;;;;;;;;6250393;28;20087;-60
2023/10/01 18:03:53;;;;;;;15.48;6.32;;;;;;;;;;6255225;28;20139;-61
2023/10/01 18:06:54;;;;;;;19.38;9.20;;;;;;;;;;6256060;28;20049;-60
2023/10/01 18:09:56;;;;;;;13.95;6.15;;;;;;;;;;6251389;28;20071;-60
2023/10/01 18:12:57;;;;;;;13.35;6.03;;;;;;;;;;6255726;28;20127;-61
2023/10/01 18:15:58;;;;;;;16.25;6.57;;;;;;;;;;6253940;28;20079;-62
2023/10/01 18:19:06;;;;;;;19.17;8.18;;;;;;;;;;6253142;28;20052;-61
2023/10/01 18:22:14;;;;;;;15.35;7.47;;;;;;;;;;6251628;28;20482;-61
2023/10/01 18:25:15;;;;;;;17.63;7.88;;;;;;;;;;6255043;28;20065;-61
2023/10/01 18:28:19;;;;;;;17.63;8.50;;;;;;;;;;6252176;28;20574;-62
2023/10/01 18:31:20;;;;;;;21.05;7.90;;;;;;;;;;6249901;28;20550;-65
2023/10/01 18:34:27;;;;;;;16.10;8.43;;;;;;;;;;6268893;28;20064;-60
2023/10/01 18:37:35;;;;;;;21.20;9.65;;;;;;;;;;6252943;28;20083;-64
2023/10/01 18:40:37;;;;;;;22.35;9.13;;;;;;;;;;6249193;28;20076;-59
2023/10/01 18:43:37;;;;;;;19.58;8.60;;;;;;;;;;6255551;28;20119;-60
2023/10/01 18:46:38;;;;;;;25.98;12.40;;;;;;;;;;6251989;28;20049;-61
2023/10/01 18:49:39;;;;;;;35.67;16.75;;;;;;;;;;6249438;28;20810;-60
2023/10/01 18:52:41;;;;;;;34.15;16.45;;;;;;;;;;6251647;28;20442;-60
2023/10/01 18:55:42;;;;;;;33.33;16.33;;;;;;;;;;6255245;28;20502;-61
2023/10/01 18:58:43;;;;;;;35.58;16.60;;;;;;;;;;6254878;28;20059;-58
2023/10/01 19:01:45;;;;;;;31.63;15.40;;;;;;;;;;6249879;28;20068;-60
2023/10/01 19:04:46;;;;;;;;;;;;;;;;;;6254629;28;20295;-60
2023/10/01 19:07:47;;;;;;;37.78;18.27;;;;;;;;;;6254011;28;20331;-60
2023/10/01 19:10:48;;;;;;;41.95;21.42;;;;;;;;;;6249488;28;20740;-60
2023/10/01 19:13:51;;;;;;;37.65;18.83;;;;;;;;;;6255902;28;20049;-60